aviador You're here:

KSSF Decoded Metar

S ANTONIO/STINSN in TX, USA
Report Time2017-11-20 04:53:00
UTC Time2017-11-20 05:50:12
Flight Rules vfr VFR
WindCalm
Visibility9999 m
Phenomena:N/A
Clouds:N/A
Expected CloudBase > 4,000 ft AGL from Temp-Dew spread
CeilingNone
Temp11°C (ISA -3)
Dew Point01°C (50% RH)
AAT9.2°C
QNH1023 hPa
Density Alt-7 ft
Elevation577 ft
Report Wrong Elevation
Raw Report
METAR KSSF 200453Z AUTO 00000KT 10SM CLR 11/01 A3021 RMK AO2 SLP229
T01060011=

Extra information for KSSF:More info

Metar Taf Metar & Taf Last 4 Metars F.Rules Stats Wind Profile Meteogram Temp Stats Airport Information Weather charts Add Link Nearby VenuesMetar ALERT Operation Metar Decoded Social comments

AIRNAV info for KSSF